sensor_id;sensor_type;location;lat;lon;timestamp;P1;durP1;ratioP1;P2;durP2;ratioP2
23496;SDS011;11925;48.122;11.560;2022-11-15T00:00:33;8.90;;;5.85;;
23496;SDS011;11925;48.122;11.560;2022-11-15T00:03:23;8.50;;;5.80;;
23496;SDS011;11925;48.122;11.560;2022-11-15T00:06:10;14.32;;;6.57;;
23496;SDS011;11925;48.122;11.560;2022-11-15T00:08:58;8.35;;;5.32;;
23496;SDS011;11925;48.122;11.560;2022-11-15T00:11:45;8.68;;;5.20;;
23496;SDS011;11925;48.122;11.560;2022-11-15T00:14:32;7.57;;;4.85;;
23496;SDS011;11925;48.122;11.560;2022-11-15T00:17:19;6.40;;;4.70;;
23496;SDS011;11925;48.122;11.560;2022-11-15T00:20:08;7.32;;;4.70;;
23496;SDS011;11925;48.122;11.560;2022-11-15T00:22:57;8.68;;;5.35;;
23496;SDS011;11925;48.122;11.560;2022-11-15T00:25:44;7.20;;;4.25;;
23496;SDS011;11925;48.122;11.560;2022-11-15T00:28:31;6.18;;;3.90;;
23496;SDS011;11925;48.122;11.560;2022-11-15T00:31:19;7.75;;;4.47;;
23496;SDS011;11925;48.122;11.560;2022-11-15T00:34:06;5.88;;;4.25;;
23496;SDS011;11925;48.122;11.560;2022-11-15T00:36:55;5.65;;;4.10;;
23496;SDS011;11925;48.122;11.560;2022-11-15T00:39:42;6.68;;;4.53;;
23496;SDS011;11925;48.122;11.560;2022-11-15T00:42:29;5.82;;;4.40;;
23496;SDS011;11925;48.122;11.560;2022-11-15T00:45:16;6.63;;;4.80;;
23496;SDS011;11925;48.122;11.560;2022-11-15T00:48:04;5.95;;;4.15;;
23496;SDS011;11925;48.122;11.560;2022-11-15T00:50:51;6.22;;;4.13;;
23496;SDS011;11925;48.122;11.560;2022-11-15T00:53:40;7.47;;;4.70;;
23496;SDS011;11925;48.122;11.560;2022-11-15T00:56:27;5.00;;;3.97;;
23496;SDS011;11925;48.122;11.560;2022-11-15T00:59:14;7.72;;;4.63;;
23496;SDS011;11925;48.122;11.560;2022-11-15T01:02:01;6.60;;;4.10;;
23496;SDS011;11925;48.122;11.560;2022-11-15T01:04:49;6.75;;;4.40;;
23496;SDS011;11925;48.122;11.560;2022-11-15T01:07:36;5.75;;;4.28;;
23496;SDS011;11925;48.122;11.560;2022-11-15T01:10:24;5.88;;;4.40;;
23496;SDS011;11925;48.122;11.560;2022-11-15T01:13:11;8.00;;;4.60;;
23496;SDS011;11925;48.122;11.560;2022-11-15T01:15:59;6.72;;;3.97;;
23496;SDS011;11925;48.122;11.560;2022-11-15T01:18:46;5.40;;;4.15;;
23496;SDS011;11925;48.122;11.560;2022-11-15T01:21:33;6.80;;;4.47;;
23496;SDS011;11925;48.122;11.560;2022-11-15T01:24:20;8.82;;;4.35;;
23496;SDS011;11925;48.122;11.560;2022-11-15T01:27:09;6.15;;;4.35;;
23496;SDS011;11925;48.122;11.560;2022-11-15T01:29:56;6.13;;;4.05;;
23496;SDS011;11925;48.122;11.560;2022-11-15T01:32:43;6.57;;;4.10;;
23496;SDS011;11925;48.122;11.560;2022-11-15T01:35:31;6.57;;;4.28;;
23496;SDS011;11925;48.122;11.560;2022-11-15T01:38:19;5.85;;;4.20;;
23496;SDS011;11925;48.122;11.560;2022-11-15T01:41:06;4.80;;;3.80;;
23496;SDS011;11925;48.122;11.560;2022-11-15T01:43:55;6.45;;;4.00;;
23496;SDS011;11925;48.122;11.560;2022-11-15T01:46:43;7.75;;;4.30;;
23496;SDS011;11925;48.122;11.560;2022-11-15T01:49:33;5.80;;;3.80;;
23496;SDS011;11925;48.122;11.560;2022-11-15T01:52:21;6.82;;;4.25;;
23496;SDS011;11925;48.122;11.560;2022-11-15T01:55:11;5.22;;;3.22;;
23496;SDS011;11925;48.122;11.560;2022-11-15T01:58:01;6.07;;;3.75;;
23496;SDS011;11925;48.122;11.560;2022-11-15T02:00:50;6.38;;;3.80;;
23496;SDS011;11925;48.122;11.560;2022-11-15T02:03:39;5.45;;;3.67;;
23496;SDS011;11925;48.122;11.560;2022-11-15T02:06:28;5.25;;;3.53;;
23496;SDS011;11925;48.122;11.560;2022-11-15T02:09:16;4.75;;;3.30;;
23496;SDS011;11925;48.122;11.560;2022-11-15T02:12:04;5.45;;;2.90;;
23496;SDS011;11925;48.122;11.560;2022-11-15T02:14:52;4.57;;;2.53;;
23496;SDS011;11925;48.122;11.560;2022-11-15T02:17:52;5.55;;;2.85;;
23496;SDS011;11925;48.122;11.560;2022-11-15T02:20:54;4.53;;;2.97;;
23496;SDS011;11925;48.122;11.560;2022-11-15T02:23:56;4.45;;;2.67;;
23496;SDS011;11925;48.122;11.560;2022-11-15T02:30:16;3.40;;;2.50;;
23496;SDS011;11925;48.122;11.560;2022-11-15T02:33:05;4.85;;;2.40;;
23496;SDS011;11925;48.122;11.560;2022-11-15T02:35:57;3.22;;;2.53;;
23496;SDS011;11925;48.122;11.560;2022-11-15T02:38:46;4.25;;;2.50;;
23496;SDS011;11925;48.122;11.560;2022-11-15T02:41:35;3.95;;;2.70;;
23496;SDS011;11925;48.122;11.560;2022-11-15T02:44:27;3.47;;;2.58;;
23496;SDS011;11925;48.122;11.560;2022-11-15T02:47:17;2.72;;;2.25;;
23496;SDS011;11925;48.122;11.560;2022-11-15T02:50:06;4.50;;;2.33;;
23496;SDS011;11925;48.122;11.560;2022-11-15T02:52:54;3.42;;;2.13;;
23496;SDS011;11925;48.122;11.560;2022-11-15T02:55:43;3.28;;;2.17;;
23496;SDS011;11925;48.122;11.560;2022-11-15T02:58:37;4.13;;;2.20;;
23496;SDS011;11925;48.122;11.560;2022-11-15T03:01:31;2.97;;;2.05;;
23496;SDS011;11925;48.122;11.560;2022-11-15T03:04:26;3.13;;;2.47;;
23496;SDS011;11925;48.122;11.560;2022-11-15T03:07:17;2.88;;;1.98;;
23496;SDS011;11925;48.122;11.560;2022-11-15T03:10:06;2.90;;;2.17;;
23496;SDS011;11925;48.122;11.560;2022-11-15T03:12:57;3.42;;;2.20;;
23496;SDS011;11925;48.122;11.560;2022-11-15T03:15:48;3.45;;;2.42;;
23496;SDS011;11925;48.122;11.560;2022-11-15T03:18:38;3.77;;;2.80;;
23496;SDS011;11925;48.122;11.560;2022-11-15T03:21:27;3.22;;;2.40;;
23496;SDS011;11925;48.122;11.560;2022-11-15T03:24:15;4.65;;;2.58;;
23496;SDS011;11925;48.122;11.560;2022-11-15T03:27:10;5.47;;;2.72;;
23496;SDS011;11925;48.122;11.560;2022-11-15T03:30:00;3.28;;;2.40;;
23496;SDS011;11925;48.122;11.560;2022-11-15T03:32:49;3.33;;;2.58;;
23496;SDS011;11925;48.122;11.560;2022-11-15T03:35:38;5.05;;;2.88;;
23496;SDS011;11925;48.122;11.560;2022-11-15T03:38:29;5.10;;;2.70;;
23496;SDS011;11925;48.122;11.560;2022-11-15T03:41:17;3.60;;;2.20;;
23496;SDS011;11925;48.122;11.560;2022-11-15T03:44:08;6.15;;;2.60;;
23496;SDS011;11925;48.122;11.560;2022-11-15T03:47:00;4.13;;;2.80;;
23496;SDS011;11925;48.122;11.560;2022-11-15T03:49:50;4.53;;;2.95;;
23496;SDS011;11925;48.122;11.560;2022-11-15T03:52:38;3.67;;;2.30;;
23496;SDS011;11925;48.122;11.560;2022-11-15T03:55:27;4.72;;;2.20;;
23496;SDS011;11925;48.122;11.560;2022-11-15T03:58:14;4.13;;;2.58;;
23496;SDS011;11925;48.122;11.560;2022-11-15T04:01:01;3.22;;;2.25;;
23496;SDS011;11925;48.122;11.560;2022-11-15T04:03:48;3.78;;;2.20;;
23496;SDS011;11925;48.122;11.560;2022-11-15T04:06:36;3.28;;;2.63;;
23496;SDS011;11925;48.122;11.560;2022-11-15T04:09:23;3.10;;;2.17;;
23496;SDS011;11925;48.122;11.560;2022-11-15T04:12:12;3.30;;;2.67;;
23496;SDS011;11925;48.122;11.560;2022-11-15T04:15:16;4.57;;;2.25;;
23496;SDS011;11925;48.122;11.560;2022-11-15T04:18:04;3.58;;;2.25;;
23496;SDS011;11925;48.122;11.560;2022-11-15T04:20:51;3.13;;;2.00;;
23496;SDS011;11925;48.122;11.560;2022-11-15T04:23:56;3.03;;;2.10;;
23496;SDS011;11925;48.122;11.560;2022-11-15T04:26:58;4.35;;;2.78;;
23496;SDS011;11925;48.122;11.560;2022-11-15T04:29:47;2.97;;;2.30;;
23496;SDS011;11925;48.122;11.560;2022-11-15T04:32:34;4.05;;;2.40;;
23496;SDS011;11925;48.122;11.560;2022-11-15T04:35:21;4.15;;;2.15;;
23496;SDS011;11925;48.122;11.560;2022-11-15T04:38:09;4.25;;;2.65;;
23496;SDS011;11925;48.122;11.560;2022-11-15T04:40:57;4.03;;;2.30;;
23496;SDS011;11925;48.122;11.560;2022-11-15T04:43:44;3.03;;;2.20;;
23496;SDS011;11925;48.122;11.560;2022-11-15T04:46:33;2.97;;;2.00;;
23496;SDS011;11925;48.122;11.560;2022-11-15T04:49:20;4.07;;;1.73;;
23496;SDS011;11925;48.122;11.560;2022-11-15T04:52:08;2.80;;;1.75;;
23496;SDS011;11925;48.122;11.560;2022-11-15T04:54:55;3.70;;;1.90;;
23496;SDS011;11925;48.122;11.560;2022-11-15T04:57:56;2.15;;;1.77;;
23496;SDS011;11925;48.122;11.560;2022-11-15T05:00:45;2.58;;;1.40;;
23496;SDS011;11925;48.122;11.560;2022-11-15T05:03:33;2.80;;;1.80;;
23496;SDS011;11925;48.122;11.560;2022-11-15T05:06:39;1.90;;;1.70;;
23496;SDS011;11925;48.122;11.560;2022-11-15T05:09:26;3.00;;;1.60;;
23496;SDS011;11925;48.122;11.560;2022-11-15T05:12:13;3.00;;;1.85;;
23496;SDS011;11925;48.122;11.560;2022-11-15T05:15:00;4.45;;;1.88;;
23496;SDS011;11925;48.122;11.560;2022-11-15T05:17:47;3.40;;;2.03;;
23496;SDS011;11925;48.122;11.560;2022-11-15T05:20:36;3.28;;;1.77;;
23496;SDS011;11925;48.122;11.560;2022-11-15T05:23:23;4.13;;;1.52;;
23496;SDS011;11925;48.122;11.560;2022-11-15T05:26:10;3.28;;;1.80;;
23496;SDS011;11925;48.122;11.560;2022-11-15T05:28:58;3.03;;;1.67;;
23496;SDS011;11925;48.122;11.560;2022-11-15T05:31:46;4.03;;;1.60;;
23496;SDS011;11925;48.122;11.560;2022-11-15T05:34:33;3.88;;;1.90;;
23496;SDS011;11925;48.122;11.560;2022-11-15T05:37:21;2.85;;;2.10;;
23496;SDS011;11925;48.122;11.560;2022-11-15T05:40:09;2.22;;;1.63;;
23496;SDS011;11925;48.122;11.560;2022-11-15T05:42:56;3.92;;;1.73;;
23496;SDS011;11925;48.122;11.560;2022-11-15T05:45:44;3.22;;;1.98;;
23496;SDS011;11925;48.122;11.560;2022-11-15T05:48:31;3.45;;;2.00;;
23496;SDS011;11925;48.122;11.560;2022-11-15T05:51:18;4.20;;;1.95;;
23496;SDS011;11925;48.122;11.560;2022-11-15T05:54:08;3.28;;;1.80;;
23496;SDS011;11925;48.122;11.560;2022-11-15T05:56:55;3.42;;;2.03;;
23496;SDS011;11925;48.122;11.560;2022-11-15T05:59:43;4.65;;;1.80;;
23496;SDS011;11925;48.122;11.560;2022-11-15T06:02:30;5.40;;;2.25;;
23496;SDS011;11925;48.122;11.560;2022-11-15T06:05:17;3.42;;;2.03;;
23496;SDS011;11925;48.122;11.560;2022-11-15T06:08:04;3.70;;;1.90;;
23496;SDS011;11925;48.122;11.560;2022-11-15T06:10:53;2.97;;;1.92;;
23496;SDS011;11925;48.122;11.560;2022-11-15T06:13:40;5.40;;;3.63;;
23496;SDS011;11925;48.122;11.560;2022-11-15T06:16:28;4.60;;;2.15;;
23496;SDS011;11925;48.122;11.560;2022-11-15T06:19:15;4.30;;;3.58;;
23496;SDS011;11925;48.122;11.560;2022-11-15T06:22:02;5.00;;;2.78;;
23496;SDS011;11925;48.122;11.560;2022-11-15T06:24:49;5.28;;;2.60;;
23496;SDS011;11925;48.122;11.560;2022-11-15T06:27:38;4.60;;;2.83;;
23496;SDS011;11925;48.122;11.560;2022-11-15T06:30:25;6.25;;;2.72;;
23496;SDS011;11925;48.122;11.560;2022-11-15T06:33:12;5.10;;;2.58;;
23496;SDS011;11925;48.122;11.560;2022-11-15T06:36:00;4.93;;;2.80;;
23496;SDS011;11925;48.122;11.560;2022-11-15T06:38:47;4.22;;;2.00;;
23496;SDS011;11925;48.122;11.560;2022-11-15T06:41:35;3.28;;;2.20;;
23496;SDS011;11925;48.122;11.560;2022-11-15T06:44:23;4.03;;;2.30;;
23496;SDS011;11925;48.122;11.560;2022-11-15T06:47:11;4.95;;;2.20;;
23496;SDS011;11925;48.122;11.560;2022-11-15T06:49:58;2.63;;;2.05;;
23496;SDS011;11925;48.122;11.560;2022-11-15T06:52:45;3.03;;;2.20;;
23496;SDS011;11925;48.122;11.560;2022-11-15T06:55:32;2.90;;;2.17;;
23496;SDS011;11925;48.122;11.560;2022-11-15T06:58:20;3.05;;;1.90;;
23496;SDS011;11925;48.122;11.560;2022-11-15T07:01:09;7.35;;;4.70;;
23496;SDS011;11925;48.122;11.560;2022-11-15T07:03:56;10.05;;;4.13;;
23496;SDS011;11925;48.122;11.560;2022-11-15T07:06:45;7.40;;;4.70;;
23496;SDS011;11925;48.122;11.560;2022-11-15T07:09:34;5.32;;;3.67;;
23496;SDS011;11925;48.122;11.560;2022-11-15T07:12:21;7.50;;;3.47;;
23496;SDS011;11925;48.122;11.560;2022-11-15T07:15:09;4.50;;;2.78;;
23496;SDS011;11925;48.122;11.560;2022-11-15T07:18:01;4.53;;;3.10;;
23496;SDS011;11925;48.122;11.560;2022-11-15T07:20:48;5.07;;;2.90;;
23496;SDS011;11925;48.122;11.560;2022-11-15T07:23:36;8.45;;;5.47;;
23496;SDS011;11925;48.122;11.560;2022-11-15T07:26:23;6.97;;;3.55;;
23496;SDS011;11925;48.122;11.560;2022-11-15T07:29:11;4.68;;;3.10;;
23496;SDS011;11925;48.122;11.560;2022-11-15T07:31:59;7.20;;;3.05;;
23496;SDS011;11925;48.122;11.560;2022-11-15T07:34:47;3.78;;;2.35;;
23496;SDS011;11925;48.122;11.560;2022-11-15T07:37:34;7.07;;;2.55;;
23496;SDS011;11925;48.122;11.560;2022-11-15T07:40:22;3.78;;;2.70;;
23496;SDS011;11925;48.122;11.560;2022-11-15T07:43:09;6.25;;;3.10;;
23496;SDS011;11925;48.122;11.560;2022-11-15T07:45:56;5.80;;;3.75;;
23496;SDS011;11925;48.122;11.560;2022-11-15T07:48:44;5.47;;;3.45;;
23496;SDS011;11925;48.122;11.560;2022-11-15T07:51:32;7.13;;;3.42;;
23496;SDS011;11925;48.122;11.560;2022-11-15T07:54:20;6.40;;;3.97;;
23496;SDS011;11925;48.122;11.560;2022-11-15T07:57:07;5.53;;;3.28;;
23496;SDS011;11925;48.122;11.560;2022-11-15T07:59:55;4.57;;;2.90;;
23496;SDS011;11925;48.122;11.560;2022-11-15T08:02:42;5.18;;;3.10;;
23496;SDS011;11925;48.122;11.560;2022-11-15T08:05:29;5.22;;;3.20;;
23496;SDS011;11925;48.122;11.560;2022-11-15T08:08:18;4.90;;;2.80;;
23496;SDS011;11925;48.122;11.560;2022-11-15T08:11:05;4.15;;;2.80;;
23496;SDS011;11925;48.122;11.560;2022-11-15T08:13:53;4.57;;;2.50;;
23496;SDS011;11925;48.122;11.560;2022-11-15T08:16:40;7.30;;;2.70;;
23496;SDS011;11925;48.122;11.560;2022-11-15T08:19:14;3.67;;;2.40;;
23496;SDS011;11925;48.122;11.560;2022-11-15T08:22:01;4.63;;;2.63;;
23496;SDS011;11925;48.122;11.560;2022-11-15T08:24:49;5.72;;;2.75;;
23496;SDS011;11925;48.122;11.560;2022-11-15T08:27:36;5.32;;;2.80;;
23496;SDS011;11925;48.122;11.560;2022-11-15T08:30:24;5.45;;;2.70;;
23496;SDS011;11925;48.122;11.560;2022-11-15T08:33:11;4.50;;;2.95;;
23496;SDS011;11925;48.122;11.560;2022-11-15T08:36:00;3.88;;;2.40;;
23496;SDS011;11925;48.122;11.560;2022-11-15T08:38:47;4.60;;;2.67;;
23496;SDS011;11925;48.122;11.560;2022-11-15T08:41:36;7.65;;;3.08;;
23496;SDS011;11925;48.122;11.560;2022-11-15T08:44:24;7.75;;;3.30;;
23496;SDS011;11925;48.122;11.560;2022-11-15T08:47:11;4.53;;;2.40;;
23496;SDS011;11925;48.122;11.560;2022-11-15T08:49:58;7.20;;;2.85;;
23496;SDS011;11925;48.122;11.560;2022-11-15T08:52:46;6.30;;;3.15;;
23496;SDS011;11925;48.122;11.560;2022-11-15T08:55:35;5.72;;;2.53;;
23496;SDS011;11925;48.122;11.560;2022-11-15T08:58:24;7.88;;;3.05;;
23496;SDS011;11925;48.122;11.560;2022-11-15T09:01:15;5.93;;;2.60;;
23496;SDS011;11925;48.122;11.560;2022-11-15T09:04:03;4.57;;;2.90;;
23496;SDS011;11925;48.122;11.560;2022-11-15T09:06:50;5.03;;;2.65;;
23496;SDS011;11925;48.122;11.560;2022-11-15T09:09:37;10.57;;;3.28;;
23496;SDS011;11925;48.122;11.560;2022-11-15T09:12:24;26.88;;;4.07;;
23496;SDS011;11925;48.122;11.560;2022-11-15T09:15:13;18.90;;;3.42;;
23496;SDS011;11925;48.122;11.560;2022-11-15T09:18:01;8.15;;;2.95;;
23496;SDS011;11925;48.122;11.560;2022-11-15T09:20:48;27.42;;;4.40;;
23496;SDS011;11925;48.122;11.560;2022-11-15T09:23:35;17.67;;;3.75;;
23496;SDS011;11925;48.122;11.560;2022-11-15T09:26:22;270.15;;;35.83;;
23496;SDS011;11925;48.122;11.560;2022-11-15T09:29:10;530.13;;;69.70;;
23496;SDS011;11925;48.122;11.560;2022-11-15T09:31:59;513.92;;;65.38;;
23496;SDS011;11925;48.122;11.560;2022-11-15T09:34:46;396.50;;;53.38;;
23496;SDS011;11925;48.122;11.560;2022-11-15T09:37:33;386.48;;;51.40;;
23496;SDS011;11925;48.122;11.560;2022-11-15T09:40:20;335.38;;;48.92;;
23496;SDS011;11925;48.122;11.560;2022-11-15T09:43:11;322.23;;;47.75;;
23496;SDS011;11925;48.122;11.560;2022-11-15T09:46:08;293.35;;;43.97;;
23496;SDS011;11925;48.122;11.560;2022-11-15T09:49:06;226.90;;;35.15;;
23496;SDS011;11925;48.122;11.560;2022-11-15T09:51:50;209.23;;;33.30;;
23496;SDS011;11925;48.122;11.560;2022-11-15T09:54:21;203.18;;;32.55;;
23496;SDS011;11925;48.122;11.560;2022-11-15T09:57:14;140.13;;;25.70;;
23496;SDS011;11925;48.122;11.560;2022-11-15T09:59:48;140.43;;;24.40;;
23496;SDS011;11925;48.122;11.560;2022-11-15T10:02:22;138.50;;;25.38;;
23496;SDS011;11925;48.122;11.560;2022-11-15T10:04:58;138.02;;;24.52;;
23496;SDS011;11925;48.122;11.560;2022-11-15T10:07:28;96.10;;;19.20;;
23496;SDS011;11925;48.122;11.560;2022-11-15T10:10:00;79.20;;;16.73;;
23496;SDS011;11925;48.122;11.560;2022-11-15T10:12:31;69.35;;;13.20;;
23496;SDS011;11925;48.122;11.560;2022-11-15T10:15:00;48.70;;;14.25;;
23496;SDS011;11925;48.122;11.560;2022-11-15T10:17:42;60.17;;;12.88;;
23496;SDS011;11925;48.122;11.560;2022-11-15T10:20:19;40.08;;;10.80;;
23496;SDS011;11925;48.122;11.560;2022-11-15T10:22:50;34.55;;;9.57;;
23496;SDS011;11925;48.122;11.560;2022-11-15T10:25:20;37.90;;;9.80;;
23496;SDS011;11925;48.122;11.560;2022-11-15T10:27:53;28.27;;;8.35;;
23496;SDS011;11925;48.122;11.560;2022-11-15T10:30:23;25.00;;;6.60;;
23496;SDS011;11925;48.122;11.560;2022-11-15T10:32:52;20.67;;;6.20;;
23496;SDS011;11925;48.122;11.560;2022-11-15T10:35:23;19.42;;;5.78;;
23496;SDS011;11925;48.122;11.560;2022-11-15T10:37:52;14.35;;;5.07;;
23496;SDS011;11925;48.122;11.560;2022-11-15T10:40:32;16.15;;;5.15;;
23496;SDS011;11925;48.122;11.560;2022-11-15T10:43:05;17.40;;;5.03;;
23496;SDS011;11925;48.122;11.560;2022-11-15T10:45:34;11.75;;;4.10;;
23496;SDS011;11925;48.122;11.560;2022-11-15T10:48:22;13.88;;;4.30;;
23496;SDS011;11925;48.122;11.560;2022-11-15T10:50:53;9.52;;;3.58;;
23496;SDS011;11925;48.122;11.560;2022-11-15T10:53:24;9.82;;;3.38;;
23496;SDS011;11925;48.122;11.560;2022-11-15T10:55:55;11.18;;;3.63;;
23496;SDS011;11925;48.122;11.560;2022-11-15T10:58:30;9.10;;;3.33;;
23496;SDS011;11925;48.122;11.560;2022-11-15T11:01:10;7.03;;;3.17;;
23496;SDS011;11925;48.122;11.560;2022-11-15T11:03:39;10.57;;;2.72;;
23496;SDS011;11925;48.122;11.560;2022-11-15T11:06:12;6.95;;;2.72;;
23496;SDS011;11925;48.122;11.560;2022-11-15T11:08:52;6.43;;;2.65;;
23496;SDS011;11925;48.122;11.560;2022-11-15T11:11:21;6.75;;;2.60;;
23496;SDS011;11925;48.122;11.560;2022-11-15T11:13:50;6.70;;;2.60;;
23496;SDS011;11925;48.122;11.560;2022-11-15T11:16:39;5.35;;;2.60;;
23496;SDS011;11925;48.122;11.560;2022-11-15T11:22:01;4.63;;;2.67;;
23496;SDS011;11925;48.122;11.560;2022-11-15T11:24:33;7.03;;;2.47;;
23496;SDS011;11925;48.122;11.560;2022-11-15T11:29:50;5.28;;;2.20;;
23496;SDS011;11925;48.122;11.560;2022-11-15T11:32:28;3.33;;;1.85;;
23496;SDS011;11925;48.122;11.560;2022-11-15T11:35:01;4.50;;;2.10;;
23496;SDS011;11925;48.122;11.560;2022-11-15T11:37:37;5.47;;;2.20;;
23496;SDS011;11925;48.122;11.560;2022-11-15T11:40:12;5.60;;;2.33;;
23496;SDS011;11925;48.122;11.560;2022-11-15T11:42:44;4.70;;;1.90;;
23496;SDS011;11925;48.122;11.560;2022-11-15T11:45:17;4.20;;;2.08;;
23496;SDS011;11925;48.122;11.560;2022-11-15T11:47:47;3.42;;;1.98;;
23496;SDS011;11925;48.122;11.560;2022-11-15T11:50:19;2.45;;;1.75;;
23496;SDS011;11925;48.122;11.560;2022-11-15T11:52:55;3.60;;;1.75;;
23496;SDS011;11925;48.122;11.560;2022-11-15T11:55:31;5.72;;;1.88;;
23496;SDS011;11925;48.122;11.560;2022-11-15T11:58:03;4.95;;;2.10;;
23496;SDS011;11925;48.122;11.560;2022-11-15T12:00:33;2.83;;;1.52;;
23496;SDS011;11925;48.122;11.560;2022-11-15T12:05:34;3.25;;;1.80;;
23496;SDS011;11925;48.122;11.560;2022-11-15T12:08:15;3.08;;;1.60;;
23496;SDS011;11925;48.122;11.560;2022-11-15T12:10:47;3.30;;;1.50;;
23496;SDS011;11925;48.122;11.560;2022-11-15T12:13:18;2.78;;;1.40;;
23496;SDS011;11925;48.122;11.560;2022-11-15T12:15:49;2.40;;;1.52;;
23496;SDS011;11925;48.122;11.560;2022-11-15T12:18:19;5.22;;;1.45;;
23496;SDS011;11925;48.122;11.560;2022-11-15T12:20:50;2.95;;;1.40;;
23496;SDS011;11925;48.122;11.560;2022-11-15T12:23:23;3.50;;;1.48;;
23496;SDS011;11925;48.122;11.560;2022-11-15T12:25:55;3.75;;;1.50;;
23496;SDS011;11925;48.122;11.560;2022-11-15T12:28:28;1.95;;;1.17;;
23496;SDS011;11925;48.122;11.560;2022-11-15T12:31:00;3.08;;;1.83;;
23496;SDS011;11925;48.122;11.560;2022-11-15T12:33:31;4.57;;;1.80;;
23496;SDS011;11925;48.122;11.560;2022-11-15T12:36:01;2.75;;;1.75;;
23496;SDS011;11925;48.122;11.560;2022-11-15T12:41:19;3.47;;;1.67;;
23496;SDS011;11925;48.122;11.560;2022-11-15T12:43:49;3.08;;;1.70;;
23496;SDS011;11925;48.122;11.560;2022-11-15T12:46:22;2.42;;;1.70;;
23496;SDS011;11925;48.122;11.560;2022-11-15T12:48:53;2.08;;;1.52;;
23496;SDS011;11925;48.122;11.560;2022-11-15T12:52:03;4.03;;;1.75;;
23496;SDS011;11925;48.122;11.560;2022-11-15T12:59:54;3.40;;;1.95;;
23496;SDS011;11925;48.122;11.560;2022-11-15T13:02:25;2.83;;;1.80;;
23496;SDS011;11925;48.122;11.560;2022-11-15T13:04:55;5.13;;;2.20;;
23496;SDS011;11925;48.122;11.560;2022-11-15T13:12:57;3.83;;;2.28;;
23496;SDS011;11925;48.122;11.560;2022-11-15T13:21:04;3.17;;;2.15;;
23496;SDS011;11925;48.122;11.560;2022-11-15T13:23:54;4.22;;;2.47;;
23496;SDS011;11925;48.122;11.560;2022-11-15T13:26:23;4.05;;;2.35;;
23496;SDS011;11925;48.122;11.560;2022-11-15T13:28:52;2.83;;;2.00;;
23496;SDS011;11925;48.122;11.560;2022-11-15T13:31:27;3.75;;;1.98;;
23496;SDS011;11925;48.122;11.560;2022-11-15T13:33:57;3.63;;;1.95;;
23496;SDS011;11925;48.122;11.560;2022-11-15T13:36:28;3.38;;;2.17;;
23496;SDS011;11925;48.122;11.560;2022-11-15T13:39:00;3.35;;;2.35;;
23496;SDS011;11925;48.122;11.560;2022-11-15T13:41:29;5.30;;;2.33;;
23496;SDS011;11925;48.122;11.560;2022-11-15T13:43:58;3.15;;;1.90;;
23496;SDS011;11925;48.122;11.560;2022-11-15T13:46:27;3.35;;;1.70;;
23496;SDS011;11925;48.122;11.560;2022-11-15T13:48:57;3.47;;;1.88;;
23496;SDS011;11925;48.122;11.560;2022-11-15T13:51:35;3.83;;;2.03;;
23496;SDS011;11925;48.122;11.560;2022-11-15T13:54:07;3.45;;;2.30;;
23496;SDS011;11925;48.122;11.560;2022-11-15T13:56:38;2.95;;;1.90;;
23496;SDS011;11925;48.122;11.560;2022-11-15T13:59:08;2.85;;;1.90;;
23496;SDS011;11925;48.122;11.560;2022-11-15T14:01:39;4.22;;;2.13;;
23496;SDS011;11925;48.122;11.560;2022-11-15T14:04:11;3.08;;;2.33;;
23496;SDS011;11925;48.122;11.560;2022-11-15T14:06:47;3.00;;;2.13;;
23496;SDS011;11925;48.122;11.560;2022-11-15T14:09:31;2.72;;;2.10;;
23496;SDS011;11925;48.122;11.560;2022-11-15T14:12:00;6.07;;;2.10;;
23496;SDS011;11925;48.122;11.560;2022-11-15T14:14:30;5.00;;;2.00;;
23496;SDS011;11925;48.122;11.560;2022-11-15T14:16:59;2.78;;;2.20;;
23496;SDS011;11925;48.122;11.560;2022-11-15T14:19:35;3.78;;;2.10;;
23496;SDS011;11925;48.122;11.560;2022-11-15T14:22:12;3.13;;;2.15;;
23496;SDS011;11925;48.122;11.560;2022-11-15T14:24:42;2.75;;;2.08;;
23496;SDS011;11925;48.122;11.560;2022-11-15T14:27:18;3.03;;;2.00;;
23496;SDS011;11925;48.122;11.560;2022-11-15T14:29:47;5.18;;;2.15;;
23496;SDS011;11925;48.122;11.560;2022-11-15T14:32:16;2.85;;;2.03;;
23496;SDS011;11925;48.122;11.560;2022-11-15T14:34:45;3.08;;;1.98;;
23496;SDS011;11925;48.122;11.560;2022-11-15T14:37:20;3.20;;;2.22;;
23496;SDS011;11925;48.122;11.560;2022-11-15T14:39:49;2.80;;;1.98;;
23496;SDS011;11925;48.122;11.560;2022-11-15T14:42:18;2.92;;;1.90;;
23496;SDS011;11925;48.122;11.560;2022-11-15T14:44:47;3.92;;;2.13;;
23496;SDS011;11925;48.122;11.560;2022-11-15T14:47:16;4.32;;;2.67;;
23496;SDS011;11925;48.122;11.560;2022-11-15T14:49:45;3.55;;;2.65;;
23496;SDS011;11925;48.122;11.560;2022-11-15T14:52:22;4.85;;;2.50;;
23496;SDS011;11925;48.122;11.560;2022-11-15T14:54:57;3.88;;;2.28;;
23496;SDS011;11925;48.122;11.560;2022-11-15T14:57:27;5.95;;;2.50;;
23496;SDS011;11925;48.122;11.560;2022-11-15T14:59:56;3.22;;;2.35;;
23496;SDS011;11925;48.122;11.560;2022-11-15T15:02:37;3.90;;;2.25;;
23496;SDS011;11925;48.122;11.560;2022-11-15T15:05:12;4.68;;;2.40;;
23496;SDS011;11925;48.122;11.560;2022-11-15T15:07:43;3.15;;;2.10;;
23496;SDS011;11925;48.122;11.560;2022-11-15T15:10:12;3.38;;;2.38;;
23496;SDS011;11925;48.122;11.560;2022-11-15T15:13:01;5.50;;;2.80;;
23496;SDS011;11925;48.122;11.560;2022-11-15T15:15:31;4.28;;;2.55;;
23496;SDS011;11925;48.122;11.560;2022-11-15T15:18:00;5.40;;;2.80;;
23496;SDS011;11925;48.122;11.560;2022-11-15T15:20:29;4.28;;;2.92;;
23496;SDS011;11925;48.122;11.560;2022-11-15T15:23:00;5.35;;;3.53;;
23496;SDS011;11925;48.122;11.560;2022-11-15T15:25:30;5.05;;;3.30;;
23496;SDS011;11925;48.122;11.560;2022-11-15T15:27:59;4.97;;;3.78;;
23496;SDS011;11925;48.122;11.560;2022-11-15T15:30:28;4.55;;;3.40;;
23496;SDS011;11925;48.122;11.560;2022-11-15T15:32:57;7.18;;;4.10;;
23496;SDS011;11925;48.122;11.560;2022-11-15T15:35:27;6.68;;;3.80;;
23496;SDS011;11925;48.122;11.560;2022-11-15T15:37:57;5.95;;;4.10;;
23496;SDS011;11925;48.122;11.560;2022-11-15T15:40:29;5.88;;;3.80;;
23496;SDS011;11925;48.122;11.560;2022-11-15T15:43:00;7.55;;;4.68;;
23496;SDS011;11925;48.122;11.560;2022-11-15T15:45:29;6.38;;;4.40;;
23496;SDS011;11925;48.122;11.560;2022-11-15T15:47:58;7.80;;;4.50;;
23496;SDS011;11925;48.122;11.560;2022-11-15T15:50:27;7.70;;;5.30;;
23496;SDS011;11925;48.122;11.560;2022-11-15T15:52:58;10.02;;;5.00;;
23496;SDS011;11925;48.122;11.560;2022-11-15T15:55:28;11.52;;;6.45;;
23496;SDS011;11925;48.122;11.560;2022-11-15T15:57:57;9.65;;;5.93;;
23496;SDS011;11925;48.122;11.560;2022-11-15T16:00:26;9.15;;;5.35;;
23496;SDS011;11925;48.122;11.560;2022-11-15T16:02:54;7.75;;;5.40;;
23496;SDS011;11925;48.122;11.560;2022-11-15T16:05:23;8.80;;;5.03;;
23496;SDS011;11925;48.122;11.560;2022-11-15T16:07:52;6.72;;;4.80;;
23496;SDS011;11925;48.122;11.560;2022-11-15T16:10:21;9.27;;;6.30;;
23496;SDS011;11925;48.122;11.560;2022-11-15T16:12:53;7.32;;;4.78;;
23496;SDS011;11925;48.122;11.560;2022-11-15T16:15:22;9.63;;;5.03;;
23496;SDS011;11925;48.122;11.560;2022-11-15T16:17:51;9.63;;;4.93;;
23496;SDS011;11925;48.122;11.560;2022-11-15T16:20:30;9.93;;;5.10;;
23496;SDS011;11925;48.122;11.560;2022-11-15T16:23:00;7.28;;;4.53;;
23496;SDS011;11925;48.122;11.560;2022-11-15T16:25:38;6.13;;;4.65;;
23496;SDS011;11925;48.122;11.560;2022-11-15T16:28:21;7.32;;;5.18;;